sensor_id;sensor_type;location;lat;lon;timestamp;P1;durP1;ratioP1;P2;durP2;ratioP2
19651;SDS011;9974;52.146;14.668;2023-02-28T00:02:20;21.53;;;10.20;;
19651;SDS011;9974;52.146;14.668;2023-02-28T00:04:46;15.73;;;9.90;;
19651;SDS011;9974;52.146;14.668;2023-02-28T00:07:17;18.90;;;10.07;;
19651;SDS011;9974;52.146;14.668;2023-02-28T00:09:44;21.13;;;10.40;;
19651;SDS011;9974;52.146;14.668;2023-02-28T00:12:10;20.63;;;10.80;;
19651;SDS011;9974;52.146;14.668;2023-02-28T00:14:36;17.77;;;9.53;;
19651;SDS011;9974;52.146;14.668;2023-02-28T00:17:02;21.83;;;10.50;;
19651;SDS011;9974;52.146;14.668;2023-02-28T00:19:28;18.13;;;10.13;;
19651;SDS011;9974;52.146;14.668;2023-02-28T00:21:54;20.80;;;10.43;;
19651;SDS011;9974;52.146;14.668;2023-02-28T00:24:20;17.90;;;9.50;;
19651;SDS011;9974;52.146;14.668;2023-02-28T00:26:46;22.97;;;10.60;;
19651;SDS011;9974;52.146;14.668;2023-02-28T00:29:12;20.90;;;9.70;;
19651;SDS011;9974;52.146;14.668;2023-02-28T00:31:38;19.33;;;10.27;;
19651;SDS011;9974;52.146;14.668;2023-02-28T00:34:04;19.20;;;10.13;;
19651;SDS011;9974;52.146;14.668;2023-02-28T00:36:30;16.30;;;9.27;;
19651;SDS011;9974;52.146;14.668;2023-02-28T00:38:56;19.37;;;9.33;;
19651;SDS011;9974;52.146;14.668;2023-02-28T00:41:22;18.33;;;10.23;;
19651;SDS011;9974;52.146;14.668;2023-02-28T00:43:48;20.20;;;9.93;;
19651;SDS011;9974;52.146;14.668;2023-02-28T00:46:14;21.33;;;10.23;;
19651;SDS011;9974;52.146;14.668;2023-02-28T00:48:40;22.40;;;11.73;;
19651;SDS011;9974;52.146;14.668;2023-02-28T00:51:07;18.93;;;10.27;;
19651;SDS011;9974;52.146;14.668;2023-02-28T00:53:33;19.87;;;10.07;;
19651;SDS011;9974;52.146;14.668;2023-02-28T00:55:59;21.70;;;11.27;;
19651;SDS011;9974;52.146;14.668;2023-02-28T00:58:25;21.00;;;10.43;;
19651;SDS011;9974;52.146;14.668;2023-02-28T01:00:52;20.60;;;10.20;;
19651;SDS011;9974;52.146;14.668;2023-02-28T01:03:19;18.07;;;10.50;;
19651;SDS011;9974;52.146;14.668;2023-02-28T01:05:47;20.70;;;11.07;;
19651;SDS011;9974;52.146;14.668;2023-02-28T01:08:13;20.17;;;10.73;;
19651;SDS011;9974;52.146;14.668;2023-02-28T01:10:40;18.87;;;9.97;;
19651;SDS011;9974;52.146;14.668;2023-02-28T01:13:06;16.03;;;9.93;;
19651;SDS011;9974;52.146;14.668;2023-02-28T01:15:32;17.03;;;10.77;;
19651;SDS011;9974;52.146;14.668;2023-02-28T01:17:58;22.70;;;11.57;;
19651;SDS011;9974;52.146;14.668;2023-02-28T01:20:25;19.47;;;10.40;;
19651;SDS011;9974;52.146;14.668;2023-02-28T01:22:51;19.67;;;10.90;;
19651;SDS011;9974;52.146;14.668;2023-02-28T01:25:17;16.90;;;9.83;;
19651;SDS011;9974;52.146;14.668;2023-02-28T01:27:43;18.60;;;9.87;;
19651;SDS011;9974;52.146;14.668;2023-02-28T01:30:09;19.10;;;10.90;;
19651;SDS011;9974;52.146;14.668;2023-02-28T01:32:35;17.37;;;9.37;;
19651;SDS011;9974;52.146;14.668;2023-02-28T01:35:02;17.13;;;9.07;;
19651;SDS011;9974;52.146;14.668;2023-02-28T01:37:28;18.57;;;10.13;;
19651;SDS011;9974;52.146;14.668;2023-02-28T01:39:54;22.57;;;9.80;;
19651;SDS011;9974;52.146;14.668;2023-02-28T01:42:20;20.40;;;9.87;;
19651;SDS011;9974;52.146;14.668;2023-02-28T01:47:27;24.37;;;9.93;;
19651;SDS011;9974;52.146;14.668;2023-02-28T01:49:55;16.97;;;9.37;;
19651;SDS011;9974;52.146;14.668;2023-02-28T01:52:22;17.87;;;9.87;;
19651;SDS011;9974;52.146;14.668;2023-02-28T01:54:51;18.07;;;9.53;;
19651;SDS011;9974;52.146;14.668;2023-02-28T01:57:18;17.70;;;9.90;;
19651;SDS011;9974;52.146;14.668;2023-02-28T02:00:00;18.17;;;9.73;;
19651;SDS011;9974;52.146;14.668;2023-02-28T02:02:38;17.77;;;9.97;;
19651;SDS011;9974;52.146;14.668;2023-02-28T02:05:19;20.90;;;10.30;;
19651;SDS011;9974;52.146;14.668;2023-02-28T02:07:47;16.07;;;9.27;;
19651;SDS011;9974;52.146;14.668;2023-02-28T02:10:16;21.30;;;9.57;;
19651;SDS011;9974;52.146;14.668;2023-02-28T02:15:53;16.27;;;9.73;;
19651;SDS011;9974;52.146;14.668;2023-02-28T02:18:50;18.07;;;9.13;;
19651;SDS011;9974;52.146;14.668;2023-02-28T02:24:56;17.13;;;10.40;;
19651;SDS011;9974;52.146;14.668;2023-02-28T02:40:35;18.87;;;10.37;;
19651;SDS011;9974;52.146;14.668;2023-02-28T02:43:14;19.87;;;10.77;;
19651;SDS011;9974;52.146;14.668;2023-02-28T02:48:18;17.50;;;9.47;;
19651;SDS011;9974;52.146;14.668;2023-02-28T02:50:49;15.93;;;9.63;;
19651;SDS011;9974;52.146;14.668;2023-02-28T02:53:36;21.60;;;9.03;;
19651;SDS011;9974;52.146;14.668;2023-02-28T02:56:06;17.40;;;10.13;;
19651;SDS011;9974;52.146;14.668;2023-02-28T02:58:33;17.80;;;10.10;;
19651;SDS011;9974;52.146;14.668;2023-02-28T03:01:06;17.40;;;9.93;;
19651;SDS011;9974;52.146;14.668;2023-02-28T03:03:35;14.33;;;8.63;;
19651;SDS011;9974;52.146;14.668;2023-02-28T03:06:02;16.90;;;9.73;;
19651;SDS011;9974;52.146;14.668;2023-02-28T03:08:29;18.57;;;9.70;;
19651;SDS011;9974;52.146;14.668;2023-02-28T03:11:01;18.43;;;10.17;;
19651;SDS011;9974;52.146;14.668;2023-02-28T03:16:34;19.90;;;10.13;;
19651;SDS011;9974;52.146;14.668;2023-02-28T03:24:43;17.17;;;9.37;;
19651;SDS011;9974;52.146;14.668;2023-02-28T03:27:16;17.13;;;10.37;;
19651;SDS011;9974;52.146;14.668;2023-02-28T03:29:56;18.37;;;9.93;;
19651;SDS011;9974;52.146;14.668;2023-02-28T03:32:35;14.10;;;8.67;;
19651;SDS011;9974;52.146;14.668;2023-02-28T03:35:26;16.93;;;9.73;;
19651;SDS011;9974;52.146;14.668;2023-02-28T03:38:05;14.57;;;9.50;;
19651;SDS011;9974;52.146;14.668;2023-02-28T03:40:39;15.30;;;9.70;;
19651;SDS011;9974;52.146;14.668;2023-02-28T03:43:15;19.43;;;9.93;;
19651;SDS011;9974;52.146;14.668;2023-02-28T03:45:45;13.60;;;8.03;;
19651;SDS011;9974;52.146;14.668;2023-02-28T03:48:16;14.60;;;9.10;;
19651;SDS011;9974;52.146;14.668;2023-02-28T03:50:46;15.97;;;9.00;;
19651;SDS011;9974;52.146;14.668;2023-02-28T03:53:16;14.90;;;8.83;;
19651;SDS011;9974;52.146;14.668;2023-02-28T03:55:49;15.00;;;8.37;;
19651;SDS011;9974;52.146;14.668;2023-02-28T04:01:12;16.43;;;7.73;;
19651;SDS011;9974;52.146;14.668;2023-02-28T04:03:59;18.23;;;8.23;;
19651;SDS011;9974;52.146;14.668;2023-02-28T04:06:25;13.47;;;7.83;;
19651;SDS011;9974;52.146;14.668;2023-02-28T04:08:52;15.63;;;7.60;;
19651;SDS011;9974;52.146;14.668;2023-02-28T04:11:38;17.87;;;7.70;;
19651;SDS011;9974;52.146;14.668;2023-02-28T04:14:06;14.30;;;7.70;;
19651;SDS011;9974;52.146;14.668;2023-02-28T04:16:33;12.93;;;7.70;;
19651;SDS011;9974;52.146;14.668;2023-02-28T04:19:00;13.87;;;7.50;;
19651;SDS011;9974;52.146;14.668;2023-02-28T04:21:34;10.13;;;6.40;;
19651;SDS011;9974;52.146;14.668;2023-02-28T04:24:02;13.27;;;7.13;;
19651;SDS011;9974;52.146;14.668;2023-02-28T04:26:37;13.40;;;6.50;;
19651;SDS011;9974;52.146;14.668;2023-02-28T04:29:04;15.57;;;7.73;;
19651;SDS011;9974;52.146;14.668;2023-02-28T04:31:31;15.10;;;7.40;;
19651;SDS011;9974;52.146;14.668;2023-02-28T04:33:57;13.93;;;7.37;;
19651;SDS011;9974;52.146;14.668;2023-02-28T04:36:24;13.37;;;7.23;;
19651;SDS011;9974;52.146;14.668;2023-02-28T04:38:50;17.23;;;7.20;;
19651;SDS011;9974;52.146;14.668;2023-02-28T04:41:16;18.37;;;7.20;;
19651;SDS011;9974;52.146;14.668;2023-02-28T04:43:42;12.87;;;6.87;;
19651;SDS011;9974;52.146;14.668;2023-02-28T04:46:08;13.10;;;7.63;;
19651;SDS011;9974;52.146;14.668;2023-02-28T04:48:35;12.93;;;6.70;;
19651;SDS011;9974;52.146;14.668;2023-02-28T04:51:06;12.73;;;6.80;;
19651;SDS011;9974;52.146;14.668;2023-02-28T04:53:35;12.60;;;6.70;;
19651;SDS011;9974;52.146;14.668;2023-02-28T04:56:02;14.50;;;7.23;;
19651;SDS011;9974;52.146;14.668;2023-02-28T04:58:28;13.93;;;6.90;;
19651;SDS011;9974;52.146;14.668;2023-02-28T05:00:54;13.13;;;6.23;;
19651;SDS011;9974;52.146;14.668;2023-02-28T05:03:48;11.77;;;7.17;;
19651;SDS011;9974;52.146;14.668;2023-02-28T05:06:15;12.50;;;6.33;;
19651;SDS011;9974;52.146;14.668;2023-02-28T05:08:41;11.20;;;6.47;;
19651;SDS011;9974;52.146;14.668;2023-02-28T05:11:12;15.67;;;7.60;;
19651;SDS011;9974;52.146;14.668;2023-02-28T05:13:47;11.83;;;6.53;;
19651;SDS011;9974;52.146;14.668;2023-02-28T05:16:13;10.13;;;5.93;;
19651;SDS011;9974;52.146;14.668;2023-02-28T05:18:40;16.40;;;7.67;;
19651;SDS011;9974;52.146;14.668;2023-02-28T05:21:12;14.57;;;7.20;;
19651;SDS011;9974;52.146;14.668;2023-02-28T05:23:57;13.47;;;7.33;;
19651;SDS011;9974;52.146;14.668;2023-02-28T05:26:25;12.20;;;7.10;;
19651;SDS011;9974;52.146;14.668;2023-02-28T05:28:51;12.07;;;7.10;;
19651;SDS011;9974;52.146;14.668;2023-02-28T05:31:18;12.70;;;6.10;;
19651;SDS011;9974;52.146;14.668;2023-02-28T05:33:44;9.00;;;5.93;;
19651;SDS011;9974;52.146;14.668;2023-02-28T05:36:10;10.50;;;5.93;;
19651;SDS011;9974;52.146;14.668;2023-02-28T05:38:36;13.97;;;6.73;;
19651;SDS011;9974;52.146;14.668;2023-02-28T05:41:06;15.67;;;6.60;;
19651;SDS011;9974;52.146;14.668;2023-02-28T05:43:33;13.10;;;6.20;;
19651;SDS011;9974;52.146;14.668;2023-02-28T05:46:01;13.97;;;7.07;;
19651;SDS011;9974;52.146;14.668;2023-02-28T05:48:29;11.87;;;7.13;;
19651;SDS011;9974;52.146;14.668;2023-02-28T05:50:56;10.73;;;6.33;;
19651;SDS011;9974;52.146;14.668;2023-02-28T05:53:22;10.53;;;6.20;;
19651;SDS011;9974;52.146;14.668;2023-02-28T05:55:49;12.63;;;6.83;;
19651;SDS011;9974;52.146;14.668;2023-02-28T05:58:15;17.07;;;6.93;;
19651;SDS011;9974;52.146;14.668;2023-02-28T06:00:41;16.17;;;6.90;;
19651;SDS011;9974;52.146;14.668;2023-02-28T06:03:07;12.33;;;6.83;;
19651;SDS011;9974;52.146;14.668;2023-02-28T06:05:33;17.00;;;6.93;;
19651;SDS011;9974;52.146;14.668;2023-02-28T06:07:59;14.03;;;7.00;;
19651;SDS011;9974;52.146;14.668;2023-02-28T06:10:25;19.83;;;7.17;;
19651;SDS011;9974;52.146;14.668;2023-02-28T06:12:51;13.03;;;7.07;;
19651;SDS011;9974;52.146;14.668;2023-02-28T06:15:17;15.87;;;7.20;;
19651;SDS011;9974;52.146;14.668;2023-02-28T06:17:43;13.33;;;6.90;;
19651;SDS011;9974;52.146;14.668;2023-02-28T06:20:10;13.93;;;7.70;;
19651;SDS011;9974;52.146;14.668;2023-02-28T06:22:38;11.83;;;6.50;;
19651;SDS011;9974;52.146;14.668;2023-02-28T06:25:04;14.57;;;7.67;;
19651;SDS011;9974;52.146;14.668;2023-02-28T06:27:31;15.23;;;7.50;;
19651;SDS011;9974;52.146;14.668;2023-02-28T06:29:58;15.27;;;7.40;;
19651;SDS011;9974;52.146;14.668;2023-02-28T06:32:24;15.53;;;7.10;;
19651;SDS011;9974;52.146;14.668;2023-02-28T06:34:50;14.17;;;7.17;;
19651;SDS011;9974;52.146;14.668;2023-02-28T06:37:16;16.90;;;8.33;;
19651;SDS011;9974;52.146;14.668;2023-02-28T06:39:42;16.67;;;8.63;;
19651;SDS011;9974;52.146;14.668;2023-02-28T06:42:09;13.43;;;7.50;;
19651;SDS011;9974;52.146;14.668;2023-02-28T06:44:35;17.73;;;8.33;;
19651;SDS011;9974;52.146;14.668;2023-02-28T06:47:01;18.17;;;9.87;;
19651;SDS011;9974;52.146;14.668;2023-02-28T06:49:29;15.50;;;7.80;;
19651;SDS011;9974;52.146;14.668;2023-02-28T06:51:55;14.03;;;7.67;;
19651;SDS011;9974;52.146;14.668;2023-02-28T06:54:21;15.13;;;7.10;;
19651;SDS011;9974;52.146;14.668;2023-02-28T06:56:47;15.60;;;7.73;;
19651;SDS011;9974;52.146;14.668;2023-02-28T06:59:13;17.73;;;8.87;;
19651;SDS011;9974;52.146;14.668;2023-02-28T07:01:40;17.43;;;9.40;;
19651;SDS011;9974;52.146;14.668;2023-02-28T07:04:06;17.13;;;9.00;;
19651;SDS011;9974;52.146;14.668;2023-02-28T07:06:32;17.13;;;8.80;;
19651;SDS011;9974;52.146;14.668;2023-02-28T07:08:58;15.10;;;8.43;;
19651;SDS011;9974;52.146;14.668;2023-02-28T07:11:26;19.60;;;11.23;;
19651;SDS011;9974;52.146;14.668;2023-02-28T07:13:56;20.70;;;10.00;;
19651;SDS011;9974;52.146;14.668;2023-02-28T07:16:22;16.40;;;9.77;;
19651;SDS011;9974;52.146;14.668;2023-02-28T07:18:49;19.83;;;9.40;;
19651;SDS011;9974;52.146;14.668;2023-02-28T07:21:18;16.23;;;9.70;;
19651;SDS011;9974;52.146;14.668;2023-02-28T07:23:44;18.67;;;10.73;;
19651;SDS011;9974;52.146;14.668;2023-02-28T07:26:11;15.43;;;9.20;;
19651;SDS011;9974;52.146;14.668;2023-02-28T07:28:43;19.93;;;9.83;;
19651;SDS011;9974;52.146;14.668;2023-02-28T07:31:10;16.63;;;9.07;;
19651;SDS011;9974;52.146;14.668;2023-02-28T07:33:38;19.70;;;9.27;;
19651;SDS011;9974;52.146;14.668;2023-02-28T07:36:05;16.00;;;9.50;;
19651;SDS011;9974;52.146;14.668;2023-02-28T07:38:33;17.33;;;8.80;;
19651;SDS011;9974;52.146;14.668;2023-02-28T07:41:00;15.57;;;8.23;;
19651;SDS011;9974;52.146;14.668;2023-02-28T07:43:29;15.47;;;8.63;;
19651;SDS011;9974;52.146;14.668;2023-02-28T07:45:55;15.70;;;8.43;;
19651;SDS011;9974;52.146;14.668;2023-02-28T07:48:26;16.90;;;8.93;;
19651;SDS011;9974;52.146;14.668;2023-02-28T07:50:55;18.53;;;7.80;;
19651;SDS011;9974;52.146;14.668;2023-02-28T07:53:22;15.83;;;8.57;;
19651;SDS011;9974;52.146;14.668;2023-02-28T07:55:48;12.10;;;6.80;;
19651;SDS011;9974;52.146;14.668;2023-02-28T07:58:14;13.63;;;7.43;;
19651;SDS011;9974;52.146;14.668;2023-02-28T08:00:40;18.40;;;8.63;;
19651;SDS011;9974;52.146;14.668;2023-02-28T08:03:07;18.10;;;9.47;;
19651;SDS011;9974;52.146;14.668;2023-02-28T08:05:40;12.00;;;6.93;;
19651;SDS011;9974;52.146;14.668;2023-02-28T08:08:07;13.48;;;6.95;;
19651;SDS011;9974;52.146;14.668;2023-02-28T08:10:33;15.18;;;6.88;;
19651;SDS011;9974;52.146;14.668;2023-02-28T08:12:59;13.13;;;7.35;;
19651;SDS011;9974;52.146;14.668;2023-02-28T08:15:25;15.20;;;8.15;;
19651;SDS011;9974;52.146;14.668;2023-02-28T08:17:52;14.68;;;6.78;;
19651;SDS011;9974;52.146;14.668;2023-02-28T08:20:21;17.15;;;7.68;;
19651;SDS011;9974;52.146;14.668;2023-02-28T08:22:47;12.95;;;6.65;;
19651;SDS011;9974;52.146;14.668;2023-02-28T08:25:13;13.15;;;6.85;;
19651;SDS011;9974;52.146;14.668;2023-02-28T08:27:39;13.25;;;6.80;;
19651;SDS011;9974;52.146;14.668;2023-02-28T08:30:06;15.60;;;7.68;;
19651;SDS011;9974;52.146;14.668;2023-02-28T08:32:33;12.35;;;6.85;;
19651;SDS011;9974;52.146;14.668;2023-02-28T08:34:59;15.95;;;7.05;;
19651;SDS011;9974;52.146;14.668;2023-02-28T08:37:26;11.38;;;6.72;;
19651;SDS011;9974;52.146;14.668;2023-02-28T08:39:52;11.70;;;7.13;;
19651;SDS011;9974;52.146;14.668;2023-02-28T08:42:18;18.25;;;7.82;;
19651;SDS011;9974;52.146;14.668;2023-02-28T08:44:45;14.80;;;6.85;;
19651;SDS011;9974;52.146;14.668;2023-02-28T08:47:11;12.88;;;7.38;;
19651;SDS011;9974;52.146;14.668;2023-02-28T08:49:37;13.00;;;6.93;;
19651;SDS011;9974;52.146;14.668;2023-02-28T08:52:03;14.07;;;7.35;;
19651;SDS011;9974;52.146;14.668;2023-02-28T08:54:29;11.05;;;6.25;;
19651;SDS011;9974;52.146;14.668;2023-02-28T08:56:57;13.15;;;7.38;;
19651;SDS011;9974;52.146;14.668;2023-02-28T08:59:23;11.45;;;5.55;;
19651;SDS011;9974;52.146;14.668;2023-02-28T09:01:48;12.55;;;7.20;;
19651;SDS011;9974;52.146;14.668;2023-02-28T09:04:14;13.02;;;6.97;;
19651;SDS011;9974;52.146;14.668;2023-02-28T09:06:40;10.25;;;6.38;;
19651;SDS011;9974;52.146;14.668;2023-02-28T09:09:06;11.75;;;6.07;;
19651;SDS011;9974;52.146;14.668;2023-02-28T09:11:34;12.82;;;6.88;;
19651;SDS011;9974;52.146;14.668;2023-02-28T09:14:01;13.00;;;7.57;;
19651;SDS011;9974;52.146;14.668;2023-02-28T09:16:28;13.18;;;6.72;;
19651;SDS011;9974;52.146;14.668;2023-02-28T09:18:55;13.70;;;7.32;;
19651;SDS011;9974;52.146;14.668;2023-02-28T09:21:22;14.77;;;7.10;;
19651;SDS011;9974;52.146;14.668;2023-02-28T09:23:48;14.05;;;7.18;;
19651;SDS011;9974;52.146;14.668;2023-02-28T09:26:16;14.43;;;6.95;;
19651;SDS011;9974;52.146;14.668;2023-02-28T09:28:48;10.80;;;4.85;;
19651;SDS011;9974;52.146;14.668;2023-02-28T09:31:16;13.48;;;5.65;;
19651;SDS011;9974;52.146;14.668;2023-02-28T09:33:48;9.07;;;4.82;;
19651;SDS011;9974;52.146;14.668;2023-02-28T09:36:16;9.95;;;4.97;;
19651;SDS011;9974;52.146;14.668;2023-02-28T09:38:42;7.78;;;4.63;;
19651;SDS011;9974;52.146;14.668;2023-02-28T09:41:11;7.68;;;3.75;;
19651;SDS011;9974;52.146;14.668;2023-02-28T09:43:40;10.98;;;4.95;;
19651;SDS011;9974;52.146;14.668;2023-02-28T09:46:31;7.32;;;4.43;;
19651;SDS011;9974;52.146;14.668;2023-02-28T09:49:00;8.52;;;3.67;;
19651;SDS011;9974;52.146;14.668;2023-02-28T09:54:21;8.23;;;3.30;;
19651;SDS011;9974;52.146;14.668;2023-02-28T09:56:56;12.93;;;4.15;;
19651;SDS011;9974;52.146;14.668;2023-02-28T10:02:13;6.85;;;3.17;;
19651;SDS011;9974;52.146;14.668;2023-02-28T10:05:06;8.48;;;2.97;;
19651;SDS011;9974;52.146;14.668;2023-02-28T10:07:53;5.90;;;2.78;;
19651;SDS011;9974;52.146;14.668;2023-02-28T10:10:45;5.60;;;3.03;;
19651;SDS011;9974;52.146;14.668;2023-02-28T10:13:33;6.65;;;3.60;;
19651;SDS011;9974;52.146;14.668;2023-02-28T10:16:11;6.72;;;3.60;;
19651;SDS011;9974;52.146;14.668;2023-02-28T10:18:47;7.32;;;3.97;;
19651;SDS011;9974;52.146;14.668;2023-02-28T10:21:24;8.23;;;4.13;;
19651;SDS011;9974;52.146;14.668;2023-02-28T10:26:56;7.90;;;4.78;;
19651;SDS011;9974;52.146;14.668;2023-02-28T10:29:27;7.80;;;3.95;;
19651;SDS011;9974;52.146;14.668;2023-02-28T10:31:54;7.97;;;3.53;;
19651;SDS011;9974;52.146;14.668;2023-02-28T10:34:20;11.00;;;4.78;;
19651;SDS011;9974;52.146;14.668;2023-02-28T10:36:46;9.35;;;4.45;;
19651;SDS011;9974;52.146;14.668;2023-02-28T10:42:05;7.82;;;4.10;;
19651;SDS011;9974;52.146;14.668;2023-02-28T10:45:06;8.15;;;4.25;;
19651;SDS011;9974;52.146;14.668;2023-02-28T10:47:48;8.20;;;3.72;;
19651;SDS011;9974;52.146;14.668;2023-02-28T10:58:48;7.25;;;4.05;;
19651;SDS011;9974;52.146;14.668;2023-02-28T11:01:21;7.75;;;4.65;;
19651;SDS011;9974;52.146;14.668;2023-02-28T11:03:56;7.65;;;4.10;;
19651;SDS011;9974;52.146;14.668;2023-02-28T11:06:23;8.75;;;4.18;;
19651;SDS011;9974;52.146;14.668;2023-02-28T11:08:55;16.00;;;4.63;;
19651;SDS011;9974;52.146;14.668;2023-02-28T11:11:31;8.88;;;4.22;;
19651;SDS011;9974;52.146;14.668;2023-02-28T11:14:07;7.20;;;4.05;;
19651;SDS011;9974;52.146;14.668;2023-02-28T11:16:50;11.30;;;4.60;;
19651;SDS011;9974;52.146;14.668;2023-02-28T11:19:18;9.43;;;3.90;;
19651;SDS011;9974;52.146;14.668;2023-02-28T11:21:51;8.88;;;3.80;;
19651;SDS011;9974;52.146;14.668;2023-02-28T11:26:54;6.93;;;3.55;;
19651;SDS011;9974;52.146;14.668;2023-02-28T11:32:04;7.90;;;3.72;;
19651;SDS011;9974;52.146;14.668;2023-02-28T11:34:41;9.60;;;4.18;;
19651;SDS011;9974;52.146;14.668;2023-02-28T11:37:12;7.20;;;3.85;;
19651;SDS011;9974;52.146;14.668;2023-02-28T11:39:40;7.38;;;3.75;;
19651;SDS011;9974;52.146;14.668;2023-02-28T11:48:04;6.55;;;3.40;;
19651;SDS011;9974;52.146;14.668;2023-02-28T11:50:50;5.97;;;3.53;;
19651;SDS011;9974;52.146;14.668;2023-02-28T11:56:36;7.22;;;4.03;;
19651;SDS011;9974;52.146;14.668;2023-02-28T11:59:20;7.78;;;3.88;;
19651;SDS011;9974;52.146;14.668;2023-02-28T12:08:20;6.25;;;3.28;;
19651;SDS011;9974;52.146;14.668;2023-02-28T12:10:25;6.22;;;3.50;;
19651;SDS011;9974;52.146;14.668;2023-02-28T12:13:06;6.65;;;3.35;;
19651;SDS011;9974;52.146;14.668;2023-02-28T12:18:10;6.82;;;2.97;;
19651;SDS011;9974;52.146;14.668;2023-02-28T12:20:54;5.78;;;3.28;;
19651;SDS011;9974;52.146;14.668;2023-02-28T12:23:47;6.05;;;3.17;;
19651;SDS011;9974;52.146;14.668;2023-02-28T12:26:42;6.30;;;3.45;;
19651;SDS011;9974;52.146;14.668;2023-02-28T12:29:16;7.25;;;2.88;;
19651;SDS011;9974;52.146;14.668;2023-02-28T12:31:46;7.03;;;2.80;;
19651;SDS011;9974;52.146;14.668;2023-02-28T12:34:20;6.13;;;2.70;;
19651;SDS011;9974;52.146;14.668;2023-02-28T12:36:50;4.13;;;2.50;;
19651;SDS011;9974;52.146;14.668;2023-02-28T12:39:26;5.05;;;2.60;;
19651;SDS011;9974;52.146;14.668;2023-02-28T12:44:35;5.13;;;2.25;;
19651;SDS011;9974;52.146;14.668;2023-02-28T12:47:13;6.90;;;3.08;;
19651;SDS011;9974;52.146;14.668;2023-02-28T12:50:05;6.43;;;3.15;;
19651;SDS011;9974;52.146;14.668;2023-02-28T12:55:04;4.30;;;2.22;;
19651;SDS011;9974;52.146;14.668;2023-02-28T12:57:55;5.57;;;3.00;;
19651;SDS011;9974;52.146;14.668;2023-02-28T13:00:33;5.75;;;2.60;;
19651;SDS011;9974;52.146;14.668;2023-02-28T13:03:21;4.78;;;2.80;;
19651;SDS011;9974;52.146;14.668;2023-02-28T13:06:41;4.85;;;2.83;;
19651;SDS011;9974;52.146;14.668;2023-02-28T13:09:25;5.70;;;2.85;;
19651;SDS011;9974;52.146;14.668;2023-02-28T13:11:51;4.22;;;2.63;;
19651;SDS011;9974;52.146;14.668;2023-02-28T13:14:28;5.07;;;2.40;;
19651;SDS011;9974;52.146;14.668;2023-02-28T13:17:02;3.97;;;2.28;;
19651;SDS011;9974;52.146;14.668;2023-02-28T13:19:34;4.88;;;2.65;;
19651;SDS011;9974;52.146;14.668;2023-02-28T13:22:16;4.30;;;2.22;;
19651;SDS011;9974;52.146;14.668;2023-02-28T13:27:25;5.55;;;2.53;;
19651;SDS011;9974;52.146;14.668;2023-02-28T13:38:47;5.82;;;2.88;;
19651;SDS011;9974;52.146;14.668;2023-02-28T13:51:51;6.47;;;3.20;;
19651;SDS011;9974;52.146;14.668;2023-02-28T13:57:35;6.43;;;3.03;;
19651;SDS011;9974;52.146;14.668;2023-02-28T14:03:46;8.85;;;3.40;;
19651;SDS011;9974;52.146;14.668;2023-02-28T14:06:30;7.43;;;3.75;;
19651;SDS011;9974;52.146;14.668;2023-02-28T14:09:06;5.80;;;2.80;;
19651;SDS011;9974;52.146;14.668;2023-02-28T14:11:48;5.78;;;2.75;;
19651;SDS011;9974;52.146;14.668;2023-02-28T14:14:53;5.60;;;2.63;;
19651;SDS011;9974;52.146;14.668;2023-02-28T14:17:14;6.13;;;3.22;;
19651;SDS011;9974;52.146;14.668;2023-02-28T14:19:43;5.70;;;3.72;;
19651;SDS011;9974;52.146;14.668;2023-02-28T14:22:25;7.60;;;4.18;;
19651;SDS011;9974;52.146;14.668;2023-02-28T14:30:26;6.05;;;3.25;;
19651;SDS011;9974;52.146;14.668;2023-02-28T14:33:15;5.55;;;2.90;;
19651;SDS011;9974;52.146;14.668;2023-02-28T14:38:47;5.90;;;2.85;;
19651;SDS011;9974;52.146;14.668;2023-02-28T14:41:21;6.55;;;3.30;;
19651;SDS011;9974;52.146;14.668;2023-02-28T14:44:00;7.40;;;3.67;;
19651;SDS011;9974;52.146;14.668;2023-02-28T14:46:38;8.18;;;3.10;;
19651;SDS011;9974;52.146;14.668;2023-02-28T14:49:05;7.03;;;3.65;;
19651;SDS011;9974;52.146;14.668;2023-02-28T14:51:34;5.97;;;3.00;;
19651;SDS011;9974;52.146;14.668;2023-02-28T14:54:01;10.77;;;3.10;;
19651;SDS011;9974;52.146;14.668;2023-02-28T14:56:30;7.78;;;2.85;;
19651;SDS011;9974;52.146;14.668;2023-02-28T14:59:02;6.65;;;3.58;;
19651;SDS011;9974;52.146;14.668;2023-02-28T15:01:28;6.10;;;2.88;;
19651;SDS011;9974;52.146;14.668;2023-02-28T15:04:01;7.55;;;3.53;;
19651;SDS011;9974;52.146;14.668;2023-02-28T15:06:29;6.18;;;3.20;;
19651;SDS011;9974;52.146;14.668;2023-02-28T15:09:29;8.25;;;3.20;;
19651;SDS011;9974;52.146;14.668;2023-02-28T15:11:48;8.70;;;3.30;;
19651;SDS011;9974;52.146;14.668;2023-02-28T15:14:17;8.10;;;3.15;;
19651;SDS011;9974;52.146;14.668;2023-02-28T15:16:45;5.53;;;2.78;;
19651;SDS011;9974;52.146;14.668;2023-02-28T15:19:23;7.18;;;3.72;;
19651;SDS011;9974;52.146;14.668;2023-02-28T15:21:53;5.05;;;3.25;;
19651;SDS011;9974;52.146;14.668;2023-02-28T15:24:38;5.85;;;3.30;;
19651;SDS011;9974;52.146;14.668;2023-02-28T15:27:07;7.15;;;3.38;;
19651;SDS011;9974;52.146;14.668;2023-02-28T15:29:45;7.15;;;3.35;;
19651;SDS011;9974;52.146;14.668;2023-02-28T15:32:24;7.45;;;3.83;;
19651;SDS011;9974;52.146;14.668;2023-02-28T15:34:55;8.27;;;3.30;;
19651;SDS011;9974;52.146;14.668;2023-02-28T15:40:15;7.75;;;3.38;;
19651;SDS011;9974;52.146;14.668;2023-02-28T15:45:41;8.30;;;4.00;;
19651;SDS011;9974;52.146;14.668;2023-02-28T15:48:32;6.78;;;4.18;;
19651;SDS011;9974;52.146;14.668;2023-02-28T15:53:30;8.30;;;3.75;;
19651;SDS011;9974;52.146;14.668;2023-02-28T15:56:00;6.75;;;4.00;;
19651;SDS011;9974;52.146;14.668;2023-02-28T15:58:28;7.72;;;3.55;;
19651;SDS011;9974;52.146;14.668;2023-02-28T16:01:04;7.05;;;3.67;;
19651;SDS011;9974;52.146;14.668;2023-02-28T16:03:37;9.02;;;4.22;;
19651;SDS011;9974;52.146;14.668;2023-02-28T16:08:42;9.53;;;5.07;;
19651;SDS011;9974;52.146;14.668;2023-02-28T16:11:08;8.83;;;4.60;;
19651;SDS011;9974;52.146;14.668;2023-02-28T16:13:35;8.93;;;5.17;;
19651;SDS011;9974;52.146;14.668;2023-02-28T16:16:01;8.00;;;4.07;;
19651;SDS011;9974;52.146;14.668;2023-02-28T16:18:27;10.17;;;4.83;;
19651;SDS011;9974;52.146;14.668;2023-02-28T16:20:53;10.07;;;4.43;;
19651;SDS011;9974;52.146;14.668;2023-02-28T16:23:20;15.20;;;4.97;;
19651;SDS011;9974;52.146;14.668;2023-02-28T16:25:46;7.67;;;4.00;;
19651;SDS011;9974;52.146;14.668;2023-02-28T16:28:25;8.53;;;4.40;;
19651;SDS011;9974;52.146;14.668;2023-02-28T16:30:56;10.33;;;4.37;;
19651;SDS011;9974;52.146;14.668;2023-02-28T16:33:22;7.33;;;4.27;;
19651;SDS011;9974;52.146;14.668;2023-02-28T16:35:48;10.33;;;3.97;;
19651;SDS011;9974;52.146;14.668;2023-02-28T16:38:14;8.23;;;3.93;;
19651;SDS011;9974;52.146;14.668;2023-02-28T16:40:40;24.27;;;5.47;;
19651;SDS011;9974;52.146;14.668;2023-02-28T16:43:14;6.33;;;4.13;;
19651;SDS011;9974;52.146;14.668;2023-02-28T16:45:47;7.60;;;3.87;;
19651;SDS011;9974;52.146;14.668;2023-02-28T16:48:14;10.67;;;4.37;;
19651;SDS011;9974;52.146;14.668;2023-02-28T16:50:41;8.77;;;4.13;;
19651;SDS011;9974;52.146;14.668;2023-02-28T16:53:09;15.40;;;5.03;;
19651;SDS011;9974;52.146;14.668;2023-02-28T16:55:35;18.73;;;4.83;;
19651;SDS011;9974;52.146;14.668;2023-02-28T16:58:01;11.47;;;4.53;;
19651;SDS011;9974;52.146;14.668;2023-02-28T17:00:29;13.20;;;5.87;;
19651;SDS011;9974;52.146;14.668;2023-02-28T17:02:57;14.03;;;5.87;;
19651;SDS011;9974;52.146;14.668;2023-02-28T17:05:24;14.13;;;6.43;;
19651;SDS011;9974;52.146;14.668;2023-02-28T17:07:51;12.93;;;6.80;;
19651;SDS011;9974;52.146;14.668;2023-02-28T17:10:20;15.63;;;7.93;;
19651;SDS011;9974;52.146;14.668;2023-02-28T17:12:47;20.13;;;7.77;;